createdAt,value
2017-09-16T00:00:11.943Z,98900.10
2017-09-16T00:02:39.094Z,98897.21
2017-09-16T00:05:05.529Z,98901.27
2017-09-16T00:07:31.967Z,98901.86
2017-09-16T00:09:58.400Z,98900.16
2017-09-16T00:12:24.835Z,98902.73
2017-09-16T00:14:51.275Z,98900.81
2017-09-16T00:17:17.704Z,98901.50
2017-09-16T00:19:44.858Z,98905.28
2017-09-16T00:22:11.292Z,98908.31
2017-09-16T00:24:37.830Z,98906.17
2017-09-16T00:27:04.264Z,98902.22
2017-09-16T00:29:30.698Z,98905.42
2017-09-16T00:31:57.132Z,98907.14
2017-09-16T00:34:23.671Z,98903.23
2017-09-16T00:36:50.708Z,98899.48
2017-09-16T00:39:17.151Z,98901.23
2017-09-16T00:41:43.589Z,98895.57
2017-09-16T00:44:10.115Z,98898.53
2017-09-16T00:46:36.513Z,98902.85
2017-09-16T00:49:02.997Z,98890.44
2017-09-16T00:51:29.413Z,98889.46
2017-09-16T00:53:56.686Z,98890.38
2017-09-16T00:56:23.126Z,98879.78
2017-09-16T00:58:49.555Z,98885.61
2017-09-16T01:01:15.990Z,98888.34
2017-09-16T01:03:42.529Z,98884.77
2017-09-16T01:06:08.961Z,98888.13
2017-09-16T01:08:35.397Z,98890.64
2017-09-16T01:11:02.602Z,98887.33
2017-09-16T01:13:29.086Z,98885.02
2017-09-16T01:15:55.490Z,98883.20
2017-09-16T01:18:21.932Z,98889.94
2017-09-16T01:20:48.375Z,98886.03
2017-09-16T01:23:14.930Z,98887.70
2017-09-16T01:25:41.363Z,98886.89
2017-09-16T01:28:08.515Z,98883.95
2017-09-16T01:30:34.921Z,98887.63
2017-09-16T01:33:01.487Z,98880.37
2017-09-16T01:35:27.922Z,98877.23
2017-09-16T01:37:54.357Z,98877.09
2017-09-16T01:40:20.894Z,98875.47
2017-09-16T01:42:47.329Z,98870.80
2017-09-16T01:45:14.379Z,98873.89
2017-09-16T01:47:40.793Z,98875.48
2017-09-16T01:50:07.236Z,98878.05
2017-09-16T01:52:33.679Z,98874.41
2017-09-16T01:55:00.118Z,98870.84
2017-09-16T01:57:26.491Z,98879.63
2017-09-16T01:59:52.987Z,98877.75
2017-09-16T02:02:20.038Z,98876.84
2017-09-16T02:04:46.474Z,98872.53
2017-09-16T02:07:12.906Z,98872.23
2017-09-16T02:09:39.351Z,98868.52
2017-09-16T02:12:05.781Z,98867.94
2017-09-16T02:14:32.321Z,98871.98
2017-09-16T02:16:58.749Z,98866.93
2017-09-16T02:19:25.950Z,98871.46
2017-09-16T02:21:52.437Z,98852.44
2017-09-16T02:24:18.975Z,98862.55
2017-09-16T02:26:45.414Z,98865.72
2017-09-16T02:29:11.845Z,98861.45
2017-09-16T02:31:38.282Z,98862.19
2017-09-16T02:34:04.805Z,98861.12
2017-09-16T02:36:31.868Z,98856.59
2017-09-16T02:38:58.301Z,98848.47
2017-09-16T02:41:24.736Z,98851.37
2017-09-16T02:43:51.174Z,98856.45
2017-09-16T02:46:17.606Z,98855.38
2017-09-16T02:48:44.078Z,98854.48
2017-09-16T02:51:10.526Z,98859.89
2017-09-16T02:53:37.730Z,98861.34
2017-09-16T02:56:04.164Z,98856.95
2017-09-16T02:58:30.550Z,98862.64
2017-09-16T03:00:56.932Z,98855.44
2017-09-16T03:03:23.469Z,98854.06
2017-09-16T03:05:49.904Z,98859.11
2017-09-16T03:08:16.339Z,98857.82
2017-09-16T03:10:43.693Z,98852.64
2017-09-16T03:13:10.238Z,98853.98
2017-09-16T03:15:36.654Z,98859.38
2017-09-16T03:18:03.103Z,98860.85
2017-09-16T03:20:29.538Z,98864.15
2017-09-16T03:22:56.074Z,98864.48
2017-09-16T03:25:22.570Z,98861.12
2017-09-16T03:27:49.763Z,98861.97
2017-09-16T03:30:16.205Z,98864.69
2017-09-16T03:32:42.725Z,98868.05
2017-09-16T03:35:09.169Z,98867.19
2017-09-16T03:37:35.606Z,98858.28
2017-09-16T03:40:02.028Z,98852.44
2017-09-16T03:42:28.497Z,98844.38
2017-09-16T03:44:55.628Z,98847.62
2017-09-16T03:47:22.165Z,98844.31
2017-09-16T03:49:48.550Z,98854.31
2017-09-16T03:52:15.035Z,98845.19
2017-09-16T03:54:41.469Z,98842.41
2017-09-16T03:57:07.904Z,98840.41
2017-09-16T03:59:34.340Z,98850.87
2017-09-16T04:02:01.491Z,98846.33
2017-09-16T04:04:27.926Z,98859.66
2017-09-16T04:06:54.361Z,98857.30
2017-09-16T04:09:20.799Z,98857.70
2017-09-16T04:11:47.183Z,98858.81
2017-09-16T04:14:13.726Z,98858.44
2017-09-16T04:16:40.228Z,98853.89
2017-09-16T04:19:07.354Z,98857.02
2017-09-16T04:21:33.878Z,98860.49
2017-09-16T04:24:00.430Z,98870.44
2017-09-16T04:26:26.864Z,98869.91
2017-09-16T04:28:53.301Z,98872.78
2017-09-16T04:31:19.734Z,98876.53
2017-09-16T04:33:46.271Z,98875.28
2017-09-16T04:36:13.218Z,98883.45
2017-09-16T04:38:39.653Z,98878.13
2017-09-16T04:41:06.090Z,98880.52
2017-09-16T04:43:32.625Z,98886.44
2017-09-16T04:45:59.060Z,98886.16
2017-09-16T04:48:25.495Z,98889.91
2017-09-16T04:50:51.930Z,98888.61
2017-09-16T04:53:19.081Z,98895.28
2017-09-16T04:55:45.499Z,98892.62
2017-09-16T04:58:11.942Z,98893.54
2017-09-16T05:00:38.386Z,98898.90
2017-09-16T05:03:04.924Z,98908.81
2017-09-16T05:05:31.359Z,98905.10
2017-09-16T05:07:57.794Z,98903.89
2017-09-16T05:10:24.945Z,98908.34
2017-09-16T05:12:51.482Z,98904.96
2017-09-16T05:15:17.917Z,98906.18
2017-09-16T05:17:44.456Z,98907.14
2017-09-16T05:20:10.890Z,98911.05
2017-09-16T05:22:37.426Z,98915.27
2017-09-16T05:25:03.863Z,98919.63
2017-09-16T05:27:31.013Z,98924.98
2017-09-16T05:29:57.399Z,98924.72
2017-09-16T05:32:23.864Z,98928.08
2017-09-16T05:34:50.308Z,98930.12
2017-09-16T05:37:16.752Z,98921.94
2017-09-16T05:39:43.188Z,98928.05
2017-09-16T05:42:09.623Z,98925.80
2017-09-16T05:44:36.778Z,98923.44
2017-09-16T05:47:03.212Z,98932.59
2017-09-16T05:49:29.646Z,98923.45
2017-09-16T05:51:56.081Z,98923.94
2017-09-16T05:54:22.616Z,98927.70
2017-09-16T05:56:49.053Z,98925.42
2017-09-16T05:59:15.486Z,98926.78
2017-09-16T06:01:42.627Z,98930.39
2017-09-16T06:04:09.176Z,98935.20
2017-09-16T06:06:35.611Z,98941.52
2017-09-16T06:09:02.045Z,98932.73
2017-09-16T06:11:28.501Z,98936.00
2017-09-16T06:13:55.017Z,98932.48
2017-09-16T06:16:21.453Z,98939.34
2017-09-16T06:18:48.559Z,98947.41
2017-09-16T06:21:15.040Z,98944.14
2017-09-16T06:23:41.576Z,98944.92
2017-09-16T06:26:08.011Z,98944.77
2017-09-16T06:28:34.447Z,98941.81
2017-09-16T06:31:00.880Z,98942.93
2017-09-16T06:33:27.366Z,98946.66
2017-09-16T06:35:54.468Z,98948.89
2017-09-16T06:38:20.910Z,98948.83
2017-09-16T06:40:47.339Z,98946.09
2017-09-16T06:43:13.877Z,98946.86
2017-09-16T06:45:40.310Z,98946.01
2017-09-16T06:48:06.744Z,98945.15
2017-09-16T06:50:33.180Z,98948.92
2017-09-16T06:53:00.324Z,98943.79
2017-09-16T06:55:26.768Z,98943.23
2017-09-16T06:57:53.202Z,98942.27
2017-09-16T07:00:19.829Z,98941.66
2017-09-16T07:02:46.378Z,98946.68
2017-09-16T07:05:12.816Z,98942.81
2017-09-16T07:07:39.456Z,98935.62
2017-09-16T07:10:05.889Z,98936.53
2017-09-16T07:12:32.325Z,98934.05
2017-09-16T07:14:58.758Z,98936.48
2017-09-16T07:17:25.329Z,98931.84
2017-09-16T07:19:52.037Z,98921.29
2017-09-16T07:22:18.481Z,98938.84
2017-09-16T07:24:45.420Z,98935.77
2017-09-16T07:27:11.854Z,98932.02
2017-09-16T07:29:38.289Z,98941.52
2017-09-16T07:32:04.943Z,98937.03
2017-09-16T07:34:31.675Z,98932.70
2017-09-16T07:36:58.462Z,98920.30
2017-09-16T07:39:25.877Z,98934.49
2017-09-16T07:41:52.360Z,98928.18
2017-09-16T07:44:19.151Z,98929.39
2017-09-16T07:46:45.615Z,98930.33
2017-09-16T07:49:12.021Z,98932.66
2017-09-16T07:51:38.660Z,98933.22
2017-09-16T07:54:05.915Z,98929.25
2017-09-16T07:56:32.862Z,98935.70
2017-09-16T07:58:59.295Z,98935.63
2017-09-16T08:01:26.044Z,98937.79
2017-09-16T08:03:52.678Z,98930.65
2017-09-16T08:06:19.262Z,98930.95
2017-09-16T08:08:45.854Z,98918.27
2017-09-16T08:11:12.303Z,98926.48
2017-09-16T08:13:39.236Z,98925.41
2017-09-16T08:16:06.194Z,98919.83
2017-09-16T08:18:32.720Z,98921.55
2017-09-16T08:20:59.258Z,98922.50
2017-09-16T08:23:25.898Z,98912.30
2017-09-16T08:25:52.419Z,98909.48
2017-09-16T08:28:18.980Z,98902.22
2017-09-16T08:30:45.817Z,98904.33
2017-09-16T08:33:12.658Z,98901.73
2017-09-16T08:35:39.302Z,98898.50
2017-09-16T08:38:05.974Z,98903.77
2017-09-16T08:40:32.385Z,98895.58
2017-09-16T08:42:59.324Z,98889.55
2017-09-16T08:45:25.863Z,98894.69
2017-09-16T08:47:52.347Z,98899.29
2017-09-16T08:50:18.832Z,98898.80
2017-09-16T08:52:45.369Z,98893.73
2017-09-16T08:55:11.907Z,98896.57
2017-09-16T08:57:38.417Z,98888.45
2017-09-16T09:00:04.859Z,98886.03
2017-09-16T09:02:31.314Z,98883.84
2017-09-16T09:04:57.648Z,98885.88
2017-09-16T09:07:24.063Z,98882.61
2017-09-16T09:09:50.472Z,98884.69
2017-09-16T09:12:16.952Z,98887.17
2017-09-16T09:14:43.367Z,98886.83
2017-09-16T09:17:09.812Z,98881.09
2017-09-16T09:19:36.256Z,98886.81
2017-09-16T09:22:02.691Z,98885.17
2017-09-16T09:24:30.149Z,98883.83
2017-09-16T09:26:56.584Z,98882.58
2017-09-16T09:29:23.020Z,98880.58
2017-09-16T09:31:49.410Z,98877.38
2017-09-16T09:34:15.834Z,98871.81
2017-09-16T09:36:42.275Z,98879.21
2017-09-16T09:39:09.069Z,98886.98
2017-09-16T09:41:35.656Z,98880.64
2017-09-16T09:44:02.040Z,98870.64
2017-09-16T09:46:28.498Z,98866.97
2017-09-16T09:48:55.224Z,98862.72
2017-09-16T09:51:22.758Z,98862.80
2017-09-16T09:53:49.723Z,98857.63
2017-09-16T09:56:16.158Z,98856.65
2017-09-16T09:58:42.696Z,98854.70
2017-09-16T10:01:09.337Z,98850.19
2017-09-16T10:03:35.873Z,98849.58
2017-09-16T10:06:02.423Z,98845.66
2017-09-16T10:08:29.460Z,98840.92
2017-09-16T10:10:55.896Z,98836.58
2017-09-16T10:13:22.443Z,98841.20
2017-09-16T10:15:49.277Z,98837.64
2017-09-16T10:18:16.122Z,98833.30
2017-09-16T10:20:42.497Z,98830.20
2017-09-16T10:23:09.101Z,98831.51
2017-09-16T10:25:35.734Z,98826.41
2017-09-16T10:28:02.361Z,98823.31
2017-09-16T10:30:28.808Z,98813.20
2017-09-16T10:32:55.344Z,98809.88
2017-09-16T10:35:21.765Z,98806.38
2017-09-16T10:37:49.031Z,98807.05
2017-09-16T10:40:15.468Z,98805.60
2017-09-16T10:42:41.995Z,98808.05
2017-09-16T10:45:08.441Z,98801.52
2017-09-16T10:47:34.875Z,98807.80
2017-09-16T10:50:01.299Z,98808.42
2017-09-16T10:52:27.746Z,98811.20
2017-09-16T10:54:55.003Z,98804.52
2017-09-16T10:57:21.539Z,98798.14
2017-09-16T10:59:47.896Z,98801.23
2017-09-16T11:02:14.307Z,98794.67
2017-09-16T11:04:40.740Z,98797.99
2017-09-16T11:07:07.177Z,98789.45
2017-09-16T11:09:33.610Z,98789.83
2017-09-16T11:12:00.661Z,98783.64
2017-09-16T11:14:27.096Z,98778.28
2017-09-16T11:16:53.528Z,98777.65
2017-09-16T11:19:19.963Z,98776.81
2017-09-16T11:21:46.399Z,98777.31
2017-09-16T11:24:12.938Z,98784.16
2017-09-16T11:26:39.371Z,98784.25
2017-09-16T11:29:06.633Z,98777.02
2017-09-16T11:31:33.060Z,98768.53
2017-09-16T11:33:59.596Z,98762.87
2017-09-16T11:36:26.031Z,98767.11
2017-09-16T11:38:52.414Z,98767.36
2017-09-16T11:41:18.900Z,98760.22
2017-09-16T11:43:45.439Z,98747.61
2017-09-16T11:46:12.431Z,98748.16
2017-09-16T11:48:38.910Z,98748.48
2017-09-16T11:51:05.355Z,98746.73
2017-09-16T11:53:31.897Z,98743.33
2017-09-16T11:55:58.226Z,98744.33
2017-09-16T11:58:24.662Z,98739.20
2017-09-16T12:00:51.097Z,98746.06
2017-09-16T12:03:18.249Z,98745.11
2017-09-16T12:05:44.683Z,98739.52
2017-09-16T12:08:11.119Z,98737.48
2017-09-16T12:10:37.553Z,98745.69
2017-09-16T12:13:04.091Z,98736.97
2017-09-16T12:15:30.477Z,98738.61
2017-09-16T12:17:56.858Z,98738.33
2017-09-16T12:20:24.118Z,98733.86
2017-09-16T12:22:50.651Z,98732.09
2017-09-16T12:25:17.085Z,98733.78
2017-09-16T12:27:43.519Z,98736.48
2017-09-16T12:30:09.955Z,98738.84
2017-09-16T12:32:36.439Z,98733.16
2017-09-16T12:35:02.824Z,98731.89
2017-09-16T12:37:30.078Z,98737.42
2017-09-16T12:39:56.453Z,98737.73
2017-09-16T12:42:22.839Z,98738.36
2017-09-16T12:44:49.280Z,98733.29
2017-09-16T12:47:15.801Z,98735.02
2017-09-16T12:49:42.244Z,98733.39
2017-09-16T12:52:08.687Z,98725.56
2017-09-16T12:54:35.840Z,98726.06
2017-09-16T12:57:02.275Z,98726.67
2017-09-16T12:59:28.710Z,98715.73
2017-09-16T13:01:55.145Z,98718.64
2017-09-16T13:04:21.679Z,98716.83
2017-09-16T13:06:48.062Z,98714.95
2017-09-16T13:09:14.418Z,98708.88
2017-09-16T13:11:41.600Z,98715.44
2017-09-16T13:14:08.139Z,98707.50
2017-09-16T13:16:34.573Z,98699.88
2017-09-16T13:19:01.012Z,98704.13
2017-09-16T13:21:27.498Z,98704.87
2017-09-16T13:23:53.982Z,98700.09
2017-09-16T13:26:20.362Z,98701.05
2017-09-16T13:28:47.446Z,98692.13
2017-09-16T13:31:13.848Z,98703.62
2017-09-16T13:33:40.383Z,98704.06
2017-09-16T13:36:06.871Z,98703.94
2017-09-16T13:38:33.307Z,98699.59
2017-09-16T13:40:59.844Z,98701.94
2017-09-16T13:43:26.381Z,98696.98
2017-09-16T13:45:53.554Z,98694.66
2017-09-16T13:48:19.936Z,98698.64
2017-09-16T13:50:46.408Z,98693.08
2017-09-16T13:53:12.928Z,98688.45
2017-09-16T13:55:39.367Z,98693.50
2017-09-16T13:58:05.808Z,98695.29
2017-09-16T14:00:32.244Z,98693.84
2017-09-16T14:02:59.399Z,98690.30
2017-09-16T14:05:25.815Z,98682.73
2017-09-16T14:07:52.376Z,98689.26
2017-09-16T14:10:18.803Z,98696.75
2017-09-16T14:12:45.341Z,98699.27
2017-09-16T14:15:11.778Z,98694.76
2017-09-16T14:17:38.211Z,98700.56
2017-09-16T14:20:05.362Z,98704.16
2017-09-16T14:22:31.797Z,98702.92
2017-09-16T14:24:58.232Z,98700.87
2017-09-16T14:27:24.669Z,98704.99
2017-09-16T14:29:51.103Z,98704.21
2017-09-16T14:32:17.478Z,98699.38
2017-09-16T14:34:43.960Z,98702.61
2017-09-16T14:37:11.003Z,98704.80
2017-09-16T14:39:37.558Z,98705.58
2017-09-16T14:42:03.993Z,98695.05
2017-09-16T14:44:30.530Z,98705.13
2017-09-16T14:46:56.964Z,98702.22
2017-09-16T14:49:23.495Z,98705.07
2017-09-16T14:51:49.937Z,98706.63
2017-09-16T14:54:17.089Z,98701.34
2017-09-16T14:56:43.524Z,98697.02
2017-09-16T14:59:09.959Z,98694.16
2017-09-16T15:01:36.394Z,98694.75
2017-09-16T15:04:02.932Z,98691.13
2017-09-16T15:06:29.365Z,98691.61
2017-09-16T15:08:55.802Z,98687.09
2017-09-16T15:11:22.955Z,98694.34
2017-09-16T15:13:49.489Z,98691.00
2017-09-16T15:16:15.926Z,98691.50
2017-09-16T15:18:42.361Z,98692.79
2017-09-16T15:21:08.795Z,98693.23
2017-09-16T15:23:35.332Z,98695.30
2017-09-16T15:26:01.767Z,98694.45
2017-09-16T15:28:29.021Z,98694.63
2017-09-16T15:30:55.456Z,98690.93
2017-09-16T15:33:21.993Z,98690.81
2017-09-16T15:35:48.375Z,98697.75
2017-09-16T15:38:14.863Z,98696.11
2017-09-16T15:40:41.297Z,98700.27
2017-09-16T15:43:07.835Z,98699.28
2017-09-16T15:45:34.886Z,98703.86
2017-09-16T15:48:01.320Z,98708.30
2017-09-16T15:50:27.727Z,98709.06
2017-09-16T15:52:54.292Z,98702.91
2017-09-16T15:55:20.726Z,98709.35
2017-09-16T15:57:47.080Z,98707.52
2017-09-16T16:00:13.596Z,98708.58
2017-09-16T16:02:40.749Z,98712.17
2017-09-16T16:05:07.183Z,98713.91
2017-09-16T16:07:33.617Z,98717.23
2017-09-16T16:10:00.053Z,98707.11
2017-09-16T16:12:26.439Z,98712.41
2017-09-16T16:14:52.820Z,98720.79
2017-09-16T16:17:19.357Z,98714.17
2017-09-16T16:19:46.356Z,98715.19
2017-09-16T16:22:12.841Z,98720.16
2017-09-16T16:24:39.277Z,98723.38
2017-09-16T16:27:05.733Z,98725.85
2017-09-16T16:29:32.150Z,98720.76
2017-09-16T16:31:58.583Z,98726.05
2017-09-16T16:34:25.119Z,98726.38
2017-09-16T16:36:52.168Z,98727.98
2017-09-16T16:39:18.550Z,98727.63
2017-09-16T16:41:45.032Z,98722.06
2017-09-16T16:44:11.578Z,98725.78
2017-09-16T16:46:37.992Z,98726.84
2017-09-16T16:49:04.390Z,98730.33
2017-09-16T16:51:30.776Z,98732.52
2017-09-16T16:53:58.022Z,98735.00
2017-09-16T16:56:24.415Z,98729.59
2017-09-16T16:58:50.882Z,98737.77
2017-09-16T17:01:17.325Z,98740.78
2017-09-16T17:03:43.879Z,98748.43
2017-09-16T17:06:10.309Z,98756.45
2017-09-16T17:08:36.743Z,98762.23
2017-09-16T17:11:04.003Z,98776.03
2017-09-16T17:13:30.535Z,98778.00
2017-09-16T17:15:56.969Z,98780.48
2017-09-16T17:18:23.406Z,98788.31
2017-09-16T17:20:49.840Z,98792.36
2017-09-16T17:23:16.377Z,98796.95
2017-09-16T17:25:42.811Z,98786.11
2017-09-16T17:28:09.963Z,98784.98
2017-09-16T17:30:36.346Z,98790.30
2017-09-16T17:33:02.810Z,98792.92
2017-09-16T17:35:29.268Z,98802.52
2017-09-16T17:37:55.747Z,98807.91
2017-09-16T17:40:22.239Z,98805.10
2017-09-16T17:42:48.777Z,98820.71
2017-09-16T17:45:15.929Z,98812.91
2017-09-16T17:47:42.365Z,98813.16
2017-09-16T17:50:08.797Z,98819.89
2017-09-16T17:52:35.340Z,98816.56
2017-09-16T17:55:01.771Z,98815.61
2017-09-16T17:57:28.205Z,98837.58
2017-09-16T17:59:54.644Z,98827.37
2017-09-16T18:02:21.896Z,98826.42
2017-09-16T18:04:48.293Z,98833.09
2017-09-16T18:07:14.765Z,98835.12
2017-09-16T18:09:41.201Z,98842.03
2017-09-16T18:12:07.636Z,98847.55
2017-09-16T18:14:34.166Z,98855.03
2017-09-16T18:17:00.609Z,98857.78
2017-09-16T18:19:27.042Z,98858.16
2017-09-16T18:21:53.470Z,98860.50
2017-09-16T18:24:20.017Z,98861.69
2017-09-16T18:26:46.395Z,98867.38
2017-09-16T18:29:12.781Z,98862.47
2017-09-16T18:31:39.217Z,98867.98
2017-09-16T18:34:05.754Z,98871.91
2017-09-16T18:36:32.905Z,98879.97
2017-09-16T18:38:59.343Z,98883.13
2017-09-16T18:41:25.777Z,98883.30
2017-09-16T18:43:52.314Z,98875.80
2017-09-16T18:46:18.748Z,98876.02
2017-09-16T18:48:45.183Z,98881.33
2017-09-16T18:51:11.719Z,98885.24
2017-09-16T18:53:38.871Z,98889.23
2017-09-16T18:56:05.307Z,98882.33
2017-09-16T18:58:31.741Z,98887.86
2017-09-16T19:00:58.177Z,98889.45
2017-09-16T19:03:24.715Z,98881.37
2017-09-16T19:05:51.147Z,98888.07
2017-09-16T19:08:17.583Z,98886.88
2017-09-16T19:10:44.734Z,98894.36
2017-09-16T19:13:11.272Z,98892.81
2017-09-16T19:15:37.708Z,98876.45
2017-09-16T19:18:04.142Z,98891.24
2017-09-16T19:20:30.577Z,98891.62
2017-09-16T19:22:57.011Z,98897.52
2017-09-16T19:25:23.447Z,98893.38
2017-09-16T19:27:50.598Z,98897.90
2017-09-16T19:30:17.033Z,98904.02
2017-09-16T19:32:43.572Z,98902.59
2017-09-16T19:35:10.005Z,98910.27
2017-09-16T19:37:36.390Z,98904.89
2017-09-16T19:40:02.773Z,98900.34
2017-09-16T19:42:29.208Z,98909.00
2017-09-16T19:44:56.356Z,98912.72
2017-09-16T19:47:22.774Z,98912.63
2017-09-16T19:49:49.234Z,98910.45
2017-09-16T19:52:15.665Z,98906.70
2017-09-16T19:54:42.099Z,98912.38
2017-09-16T19:57:08.533Z,98910.76
2017-09-16T19:59:34.968Z,98915.05
2017-09-16T20:02:02.123Z,98921.34
2017-09-16T20:04:28.660Z,98921.30
2017-09-16T20:06:55.093Z,98923.61
2017-09-16T20:09:21.527Z,98919.26
2017-09-16T20:11:47.962Z,98918.81
2017-09-16T20:14:14.499Z,98925.45
2017-09-16T20:16:40.935Z,98927.77
2017-09-16T20:19:08.041Z,98923.38
2017-09-16T20:21:34.521Z,98926.48
2017-09-16T20:24:01.059Z,98922.34
2017-09-16T20:26:27.493Z,98924.29
2017-09-16T20:28:53.928Z,98921.48
2017-09-16T20:31:20.311Z,98919.89
2017-09-16T20:33:46.751Z,98926.51
2017-09-16T20:36:13.951Z,98930.98
2017-09-16T20:38:40.334Z,98931.92
2017-09-16T20:41:06.717Z,98931.47
2017-09-16T20:43:33.255Z,98932.61
2017-09-16T20:45:59.689Z,98938.28
2017-09-16T20:48:26.126Z,98936.30
2017-09-16T20:50:52.559Z,98938.82
2017-09-16T20:53:19.712Z,98943.89
2017-09-16T20:55:46.147Z,98939.73
2017-09-16T20:58:12.582Z,98941.67
2017-09-16T21:00:38.968Z,98941.10
2017-09-16T21:03:05.428Z,98942.38
2017-09-16T21:05:31.886Z,98945.30
2017-09-16T21:07:58.322Z,98944.86
2017-09-16T21:10:25.473Z,98934.91
2017-09-16T21:12:52.011Z,98939.43
2017-09-16T21:15:18.395Z,98942.72
2017-09-16T21:17:44.861Z,98939.40
2017-09-16T21:20:11.303Z,98945.47
2017-09-16T21:22:37.851Z,98948.61
2017-09-16T21:25:04.287Z,98948.78
2017-09-16T21:27:31.540Z,98950.33
2017-09-16T21:29:57.979Z,98952.50
2017-09-16T21:32:24.361Z,98945.97
2017-09-16T21:34:50.850Z,98953.58
2017-09-16T21:37:17.281Z,98941.77
2017-09-16T21:39:43.715Z,98934.00
2017-09-16T21:42:10.151Z,98938.62
2017-09-16T21:44:37.251Z,98945.49
2017-09-16T21:47:03.737Z,98939.56
2017-09-16T21:49:30.175Z,98940.99
2017-09-16T21:51:56.607Z,98943.09
2017-09-16T21:54:23.042Z,98941.84
2017-09-16T21:56:49.375Z,98941.28
2017-09-16T21:59:15.810Z,98936.52
2017-09-16T22:01:42.962Z,98935.11
2017-09-16T22:04:09.499Z,98930.58
2017-09-16T22:06:35.934Z,98940.31
2017-09-16T22:09:02.325Z,98937.41
2017-09-16T22:11:28.779Z,98937.17
2017-09-16T22:13:55.345Z,98941.48
2017-09-16T22:16:21.781Z,98943.83
2017-09-16T22:18:48.988Z,98945.44
2017-09-16T22:21:15.471Z,98948.27
2017-09-16T22:23:42.006Z,98942.69
2017-09-16T22:26:08.414Z,98944.27
2017-09-16T22:28:34.877Z,98937.48
2017-09-16T22:31:01.311Z,98934.29
2017-09-16T22:33:27.849Z,98930.90
2017-09-16T22:35:55.000Z,98926.54
2017-09-16T22:38:21.436Z,98920.60
2017-09-16T22:40:47.870Z,98922.70
2017-09-16T22:43:14.376Z,98922.09
2017-09-16T22:45:40.909Z,98921.30
2017-09-16T22:48:07.382Z,98919.47
2017-09-16T22:50:33.814Z,98918.77
2017-09-16T22:53:01.069Z,98920.34
2017-09-16T22:55:27.509Z,98914.56
2017-09-16T22:57:53.938Z,98916.14
2017-09-16T23:00:20.340Z,98909.88
2017-09-16T23:02:46.917Z,98913.23
2017-09-16T23:05:13.448Z,98910.16
2017-09-16T23:07:39.892Z,98910.52
2017-09-16T23:10:07.140Z,98915.34
2017-09-16T23:12:33.573Z,98911.78
2017-09-16T23:15:00.007Z,98903.55
2017-09-16T23:17:26.442Z,98906.25
2017-09-16T23:19:52.877Z,98905.56
2017-09-16T23:22:19.421Z,98910.77
2017-09-16T23:24:45.823Z,98907.38
2017-09-16T23:27:13.003Z,98915.95
2017-09-16T23:29:39.439Z,98909.62
2017-09-16T23:32:05.974Z,98911.70
2017-09-16T23:34:32.512Z,98914.06
2017-09-16T23:36:58.945Z,98920.99
2017-09-16T23:39:25.380Z,98918.87
2017-09-16T23:41:51.814Z,98924.30
2017-09-16T23:44:19.070Z,98915.81
2017-09-16T23:46:45.607Z,98923.94
2017-09-16T23:49:12.143Z,98923.44
2017-09-16T23:51:38.565Z,98918.77
2017-09-16T23:54:05.115Z,98916.57
2017-09-16T23:56:31.551Z,98909.83
2017-09-16T23:58:57.985Z,98914.48
